Time;durP1;ratioP1;P1;durP2;ratioP2;P2;SDS_P1;SDS_P2;PMS_P1;PMS_P2;Temp;Humidity;BMP_temperature;BMP_pressure;BME280_temperature;BME280_humidity;BME280_pressure;Samples;Min_cycle;Max_cycle;Signal;HPM_P1;HPM_P2
2023/02/11 00:01:59;;;;;;;13.10;12.60;;;20.20;48.70;;;;;;5051649;28;20590;-66
2023/02/11 00:04:27;;;;;;;13.27;12.77;;;20.20;48.80;;;;;;5051712;28;20502;-67
2023/02/11 00:06:55;;;;;;;13.60;13.10;;;20.20;48.80;;;;;;5051786;28;20534;-66
2023/02/11 00:09:22;;;;;;;12.57;12.17;;;20.20;48.80;;;;;;5051390;28;20449;-66
2023/02/11 00:11:48;;;;;;;13.50;13.00;;;20.20;48.90;;;;;;5051624;28;20479;-66
2023/02/11 00:14:15;;;;;;;14.07;13.47;;;20.20;48.90;;;;;;5056068;28;20463;-66
2023/02/11 00:16:42;;;;;;;13.77;13.27;;;20.20;48.90;;;;;;5055813;28;20436;-66
2023/02/11 00:19:09;;;;;;;13.00;12.50;;;20.10;48.90;;;;;;5055647;28;20446;-65
2023/02/11 00:21:38;;;;;;;12.37;11.97;;;20.10;48.90;;;;;;5055692;28;20454;-65
2023/02/11 00:24:05;;;;;;;13.20;12.80;;;20.10;48.90;;;;;;5055907;28;20566;-65
2023/02/11 00:26:34;;;;;;;12.97;12.50;;;20.10;49.00;;;;;;5055830;28;20532;-65
2023/02/11 00:29:02;;;;;;;12.80;12.30;;;20.10;49.00;;;;;;5054963;28;20495;-65
2023/02/11 00:31:29;;;;;;;13.07;12.57;;;20.10;49.00;;;;;;5055715;28;20452;-66
2023/02/11 00:33:56;;;;;;;13.87;13.33;;;20.00;49.00;;;;;;5055567;28;20452;-66
2023/02/11 00:36:25;;;;;;;13.33;12.83;;;20.00;49.00;;;;;;5055359;28;20530;-66
2023/02/11 00:38:55;;;;;;;12.77;12.37;;;20.10;49.20;;;;;;5055161;28;20441;-66
2023/02/11 00:41:22;;;;;;;12.93;12.33;;;20.00;49.20;;;;;;5055286;28;20535;-66
2023/02/11 00:43:50;;;;;;;12.00;11.60;;;20.00;49.10;;;;;;5055264;28;20456;-65
2023/02/11 00:46:17;;;;;;;12.93;12.43;;;20.00;49.20;;;;;;5055455;28;20440;-65
2023/02/11 00:48:44;;;;;;;12.90;12.50;;;20.00;49.20;;;;;;5055710;28;20968;-65
2023/02/11 00:51:12;;;;;;;13.93;13.43;;;20.00;49.20;;;;;;5055117;28;20446;-66
2023/02/11 00:53:39;;;;;;;14.70;13.90;;;20.00;49.20;;;;;;5054966;28;20484;-66
2023/02/11 00:56:07;;;;;;;12.67;12.17;;;20.00;49.30;;;;;;5054999;28;20444;-65
2023/02/11 00:58:34;;;;;;;13.63;13.13;;;19.90;49.30;;;;;;5054676;28;20450;-65
2023/02/11 01:01:01;;;;;;;12.70;12.30;;;19.90;49.30;;;;;;5055203;28;20469;-65
2023/02/11 01:03:28;;;;;;;13.27;12.77;;;19.90;49.30;;;;;;5055157;28;20456;-66
2023/02/11 01:05:55;;;;;;;12.93;12.40;;;19.90;49.30;;;;;;5054851;28;20811;-66
2023/02/11 01:08:22;;;;;;;13.93;13.27;;;19.90;49.30;;;;;;5054701;28;20448;-66
2023/02/11 01:10:54;;;;;;;12.53;12.13;;;19.90;49.40;;;;;;5054639;28;20444;-66
2023/02/11 01:13:23;;;;;;;12.97;12.50;;;19.90;49.40;;;;;;5054607;28;20483;-66
2023/02/11 01:15:50;;;;;;;13.30;12.63;;;19.90;49.40;;;;;;5054913;28;20933;-66
2023/02/11 01:18:17;;;;;;;13.10;12.50;;;19.80;49.40;;;;;;5054703;28;20535;-66
2023/02/11 01:20:44;;;;;;;13.23;12.83;;;19.80;49.40;;;;;;5054552;28;20812;-66
2023/02/11 01:23:10;;;;;;;13.40;12.90;;;19.80;49.40;;;;;;5054656;28;20865;-65
2023/02/11 01:25:37;;;;;;;13.60;13.10;;;19.80;49.40;;;;;;5053694;28;20994;-65
2023/02/11 01:28:04;;;;;;;13.10;12.50;;;19.80;49.40;;;;;;5054544;28;20527;-66
2023/02/11 01:30:32;;;;;;;12.77;12.27;;;19.80;49.50;;;;;;5054184;28;20698;-65
2023/02/11 01:32:59;;;;;;;13.00;12.57;;;19.80;49.40;;;;;;5054218;28;20507;-65
2023/02/11 01:35:26;;;;;;;13.03;12.53;;;19.80;49.50;;;;;;5054131;28;20534;-65
2023/02/11 01:37:53;;;;;;;13.37;12.87;;;19.80;49.50;;;;;;5054621;28;20950;-66
2023/02/11 01:40:20;;;;;;;12.60;12.20;;;19.80;49.60;;;;;;5053958;28;20528;-65
2023/02/11 01:42:47;;;;;;;13.43;12.93;;;19.80;49.60;;;;;;5054075;28;20531;-66
2023/02/11 01:45:52;;;;;;;13.30;12.80;;;19.80;49.50;;;;;;5054062;28;20444;-65
2023/02/11 01:48:25;;;;;;;13.10;12.70;;;19.80;49.60;;;;;;5009364;28;20459;-66
2023/02/11 01:50:55;;;;;;;13.57;13.07;;;19.80;49.60;;;;;;5033932;28;20952;-65
2023/02/11 01:58:59;;;;;;;13.20;12.80;;;19.70;49.50;;;;;;5054007;28;20419;-65
2023/02/11 02:01:27;;;;;;;13.60;13.10;;;19.70;49.60;;;;;;5053807;28;20444;-66
2023/02/11 02:04:00;;;;;;;12.67;12.27;;;19.70;49.60;;;;;;5053748;28;20459;-66
2023/02/11 02:06:33;;;;;;;12.93;12.53;;;19.70;49.60;;;;;;5053987;28;20455;-66
2023/02/11 02:09:03;;;;;;;14.20;13.70;;;19.70;49.60;;;;;;5053556;28;20969;-65
2023/02/11 02:11:30;;;;;;;12.87;12.47;;;19.70;49.60;;;;;;5053599;28;20444;-65
2023/02/11 02:13:57;;;;;;;13.60;13.00;;;19.70;49.60;;;;;;5053276;28;20480;-65
2023/02/11 02:16:30;;;;;;;14.27;13.67;;;19.70;49.70;;;;;;5053848;28;20444;-66
2023/02/11 02:19:13;;;;;;;13.37;12.97;;;19.70;49.70;;;;;;5053525;28;20956;-64
2023/02/11 02:22:01;;;;;;;12.77;12.27;;;19.60;49.60;;;;;;5053482;28;20444;-66
2023/02/11 02:25:14;;;;;;;12.77;12.27;;;19.60;49.60;;;;;;5038550;28;20999;-66
2023/02/11 02:27:50;;;;;;;13.77;13.27;;;19.60;49.70;;;;;;5053820;28;20466;-66
2023/02/11 02:31:13;;;;;;;13.00;12.50;;;19.60;49.80;;;;;;5053570;28;20446;-66
2023/02/11 02:33:48;;;;;;;12.40;12.00;;;19.60;49.80;;;;;;5053040;28;20479;-66
2023/02/11 02:36:20;;;;;;;13.73;13.23;;;19.60;49.80;;;;;;5052503;28;20447;-66
2023/02/11 02:38:53;;;;;;;12.80;12.40;;;19.60;49.80;;;;;;5033013;28;20449;-66
2023/02/11 02:41:24;;;;;;;13.20;12.80;;;19.60;49.90;;;;;;5033263;28;20456;-66
2023/02/11 02:43:52;;;;;;;12.67;12.27;;;19.60;49.80;;;;;;5048607;28;20464;-65
2023/02/11 02:46:21;;;;;;;13.23;12.63;;;19.50;49.80;;;;;;5053039;28;20535;-66
2023/02/11 02:48:51;;;;;;;12.80;12.40;;;19.60;49.90;;;;;;5053160;28;20444;-65
2023/02/11 02:51:35;;;;;;;13.17;12.67;;;19.60;49.90;;;;;;5053007;28;20445;-65
2023/02/11 02:54:19;;;;;;;12.87;12.37;;;19.60;49.90;;;;;;5052375;28;20490;-65
2023/02/11 02:56:54;;;;;;;12.03;11.63;;;19.60;49.90;;;;;;5052978;28;20444;-65
2023/02/11 02:59:36;;;;;;;13.40;12.97;;;19.60;49.90;;;;;;5052591;28;20526;-65
2023/02/11 03:02:11;;;;;;;12.43;11.93;;;19.60;49.90;;;;;;5052383;28;20454;-65
2023/02/11 03:04:48;;;;;;;12.53;12.10;;;19.50;49.90;;;;;;5037656;28;20463;-65
2023/02/11 03:07:24;;;;;;;13.13;12.63;;;19.60;49.90;;;;;;5052737;28;20505;-66
2023/02/11 03:09:56;;;;;;;13.57;13.00;;;19.50;49.90;;;;;;5052692;28;20880;-66
2023/02/11 03:12:26;;;;;;;13.83;13.33;;;19.60;50.00;;;;;;5052158;28;20470;-66
2023/02/11 03:14:53;;;;;;;13.40;12.90;;;19.50;49.90;;;;;;5052124;28;20479;-66
2023/02/11 03:17:21;;;;;;;12.70;12.30;;;19.50;49.90;;;;;;5052405;28;20473;-66
2023/02/11 03:19:51;;;;;;;12.70;12.20;;;19.60;50.00;;;;;;5052209;28;20450;-65
2023/02/11 03:22:24;;;;;;;13.57;12.77;;;19.50;49.90;;;;;;5051900;28;20506;-66
2023/02/11 03:24:51;;;;;;;12.37;11.83;;;19.50;49.90;;;;;;5052200;28;20862;-65
2023/02/11 03:27:21;;;;;;;12.90;12.40;;;19.50;49.90;;;;;;5052253;28;20449;-65
2023/02/11 03:29:55;;;;;;;12.03;11.70;;;19.50;49.90;;;;;;5051973;28;20462;-66
2023/02/11 03:32:27;;;;;;;13.17;12.67;;;19.50;49.90;;;;;;5052193;28;20444;-66
2023/02/11 03:34:59;;;;;;;12.03;11.63;;;19.50;49.90;;;;;;5052104;28;20463;-66
2023/02/11 03:37:30;;;;;;;12.10;11.70;;;19.50;49.90;;;;;;5051878;28;21028;-66
2023/02/11 03:40:02;;;;;;;11.87;11.53;;;19.50;49.90;;;;;;5051958;28;20454;-66
2023/02/11 03:42:34;;;;;;;12.60;12.10;;;19.50;49.90;;;;;;5051696;28;20441;-65
2023/02/11 03:45:06;;;;;;;13.00;12.50;;;19.50;50.50;;;;;;5051818;28;20459;-65
2023/02/11 03:47:36;;;;;;;13.97;13.47;;;19.40;49.90;;;;;;5051781;28;20444;-65
2023/02/11 03:50:09;;;;;;;13.80;12.50;;;19.40;49.90;;;;;;5051697;28;20829;-66
2023/02/11 03:52:38;;;;;;;12.73;12.33;;;19.40;49.80;;;;;;5051765;28;20626;-66
2023/02/11 03:55:11;;;;;;;13.23;12.83;;;19.40;49.80;;;;;;5051856;28;20450;-65
2023/02/11 03:57:38;;;;;;;12.50;12.10;;;19.40;49.80;;;;;;5051841;28;20444;-66
2023/02/11 04:00:06;;;;;;;13.13;12.63;;;19.40;49.90;;;;;;5051473;28;20465;-66
2023/02/11 04:02:35;;;;;;;11.93;11.53;;;19.40;49.90;;;;;;5051443;28;20446;-66
2023/02/11 04:05:05;;;;;;;13.43;12.93;;;19.40;49.90;;;;;;5051628;28;20458;-65
2023/02/11 04:07:32;;;;;;;12.67;12.17;;;19.40;49.80;;;;;;5051640;28;20450;-66
2023/02/11 04:09:59;;;;;;;13.23;12.73;;;19.40;49.80;;;;;;5051142;28;20437;-66
2023/02/11 04:12:26;;;;;;;12.10;11.70;;;19.40;50.30;;;;;;5051312;28;20531;-66
2023/02/11 04:14:53;;;;;;;14.00;13.30;;;19.40;49.70;;;;;;5051523;28;20483;-65
2023/02/11 04:17:19;;;;;;;12.77;12.27;;;19.40;49.80;;;;;;5051536;28;20650;-66
2023/02/11 04:19:46;;;;;;;12.97;12.50;;;19.40;49.80;;;;;;5051378;28;20478;-66
2023/02/11 04:22:15;;;;;;;11.87;11.57;;;19.40;49.90;;;;;;5051699;28;20532;-65
2023/02/11 04:24:42;;;;;;;13.33;12.93;;;19.40;49.90;;;;;;5051606;28;20560;-65
2023/02/11 04:27:09;;;;;;;13.03;12.50;;;19.40;49.90;;;;;;5051847;28;20484;-64
2023/02/11 04:29:36;;;;;;;12.80;12.40;;;19.40;49.90;;;;;;5051916;28;20452;-65
2023/02/11 04:32:03;;;;;;;12.87;12.40;;;19.40;50.00;;;;;;5052119;28;20439;-66
2023/02/11 04:34:30;;;;;;;12.50;12.10;;;19.40;50.00;;;;;;5051402;28;20484;-66
2023/02/11 04:36:57;;;;;;;12.70;12.30;;;19.40;50.00;;;;;;5052252;28;20456;-65
2023/02/11 04:39:26;;;;;;;12.70;12.30;;;19.40;50.00;;;;;;5052025;28;21032;-65
2023/02/11 04:41:52;;;;;;;12.40;12.00;;;19.40;50.10;;;;;;5052518;28;20508;-65
2023/02/11 04:44:19;;;;;;;13.27;12.87;;;19.40;50.10;;;;;;5051690;28;20487;-66
2023/02/11 04:46:46;;;;;;;13.10;12.70;;;19.40;50.10;;;;;;5051863;28;20530;-64
2023/02/11 04:49:14;;;;;;;13.30;12.80;;;19.40;50.10;;;;;;5051365;28;20456;-65
2023/02/11 04:51:41;;;;;;;13.07;12.47;;;19.40;50.10;;;;;;5051873;28;20450;-66
2023/02/11 04:54:08;;;;;;;12.00;11.40;;;19.40;50.10;;;;;;5052286;28;20506;-66
2023/02/11 04:56:36;;;;;;;12.60;12.10;;;19.40;50.00;;;;;;5052718;28;20539;-65
2023/02/11 04:59:04;;;;;;;11.73;11.33;;;19.40;49.90;;;;;;5053532;28;20816;-65
2023/02/11 05:01:31;;;;;;;12.70;12.30;;;19.40;49.90;;;;;;5057488;28;20446;-65
2023/02/11 05:03:58;;;;;;;12.93;12.40;;;19.40;49.90;;;;;;5063021;28;20460;-66
2023/02/11 05:06:25;;;;;;;12.63;12.13;;;19.40;49.90;;;;;;5071572;28;20459;-65
2023/02/11 05:08:52;;;;;;;12.47;11.97;;;19.40;49.90;;;;;;5072130;28;20473;-65
2023/02/11 05:11:21;;;;;;;12.50;11.90;;;19.40;50.00;;;;;;5071761;28;20482;-65
2023/02/11 05:13:49;;;;;;;11.80;11.40;;;19.40;49.80;;;;;;5068358;28;20539;-66
2023/02/11 05:16:17;;;;;;;12.57;12.07;;;19.40;49.80;;;;;;5066348;28;20538;-68
2023/02/11 05:18:44;;;;;;;11.70;11.30;;;19.40;49.70;;;;;;5055718;28;20453;-65
2023/02/11 05:21:14;;;;;;;12.60;12.20;;;19.40;49.80;;;;;;5071430;28;20467;-65
2023/02/11 05:23:41;;;;;;;11.60;11.20;;;19.40;50.10;;;;;;5120149;22;20575;-54
2023/02/11 05:26:08;;;;;;;13.40;13.00;;;19.40;50.40;;;;;;5103852;28;20806;-55
2023/02/11 05:28:36;;;;;;;13.30;12.90;;;19.40;50.50;;;;;;5094972;28;20456;-56
2023/02/11 05:31:04;;;;;;;14.40;13.87;;;19.50;50.70;;;;;;5094330;28;20449;-54
2023/02/11 05:33:32;;;;;;;12.90;12.50;;;19.50;50.80;;;;;;5090666;28;20487;-57
2023/02/11 05:35:59;;;;;;;12.13;11.80;;;19.60;50.90;;;;;;5095134;28;20984;-56
2023/02/11 05:38:26;;;;;;;13.00;12.50;;;19.60;50.90;;;;;;5075006;28;20447;-54
2023/02/11 05:40:53;;;;;;;11.57;11.27;;;19.70;51.00;;;;;;5074817;28;20811;-58
2023/02/11 05:43:20;;;;;;;11.83;11.53;;;19.70;50.90;;;;;;5074747;28;20471;-51
2023/02/11 05:45:47;;;;;;;13.70;13.20;;;19.70;50.70;;;;;;5095524;28;20453;-53
2023/02/11 05:48:15;;;;;;;12.47;12.07;;;19.70;50.60;;;;;;5096911;28;20553;-55
2023/02/11 05:50:42;;;;;;;13.50;12.90;;;19.80;50.90;;;;;;5095491;28;20533;-51
2023/02/11 05:53:09;;;;;;;13.47;12.97;;;19.80;50.80;;;;;;5096080;28;20446;-53
2023/02/11 05:55:36;;;;;;;12.53;12.13;;;19.80;50.80;;;;;;5096047;28;20521;-53
2023/02/11 05:58:03;;;;;;;12.63;12.30;;;19.80;50.80;;;;;;5096428;28;20867;-51
2023/02/11 06:00:30;;;;;;;13.50;13.00;;;19.90;50.80;;;;;;5095991;28;20445;-53
2023/02/11 06:02:57;;;;;;;12.67;12.27;;;19.80;50.70;;;;;;5096506;28;20466;-56
2023/02/11 06:05:25;;;;;;;13.37;12.87;;;19.90;50.70;;;;;;5095899;28;20438;-50
2023/02/11 06:07:52;;;;;;;12.40;12.10;;;19.90;50.70;;;;;;5094380;28;20435;-53
2023/02/11 06:10:19;;;;;;;12.27;11.87;;;19.90;50.60;;;;;;5095556;28;20448;-54
2023/02/11 06:12:46;;;;;;;13.57;13.00;;;20.00;50.70;;;;;;5095206;28;20438;-51
2023/02/11 06:15:12;;;;;;;12.30;11.67;;;20.00;50.60;;;;;;5094253;28;20933;-56
2023/02/11 06:17:39;;;;;;;14.83;13.93;;;20.00;50.60;;;;;;5094359;28;20962;-52
2023/02/11 06:20:09;;;;;;;12.20;11.80;;;20.00;50.50;;;;;;5094656;28;20486;-54
2023/02/11 06:22:37;;;;;;;13.13;12.53;;;20.00;50.50;;;;;;5094551;28;20446;-53
2023/02/11 06:25:05;;;;;;;13.13;12.43;;;20.10;50.50;;;;;;5094177;28;20912;-56
2023/02/11 06:27:31;;;;;;;13.63;13.10;;;20.10;50.50;;;;;;5093705;28;20442;-60
2023/02/11 06:29:58;;;;;;;14.43;13.27;;;20.00;50.40;;;;;;5094152;28;20943;-59
2023/02/11 06:32:26;;;;;;;14.07;13.37;;;20.00;50.40;;;;;;5095156;28;20439;-56
2023/02/11 06:34:53;;;;;;;13.37;12.60;;;20.10;50.40;;;;;;5094639;28;20482;-56
2023/02/11 06:37:20;;;;;;;15.07;14.27;;;20.10;50.40;;;;;;5096038;28;20442;-55
2023/02/11 06:39:48;;;;;;;15.07;14.43;;;20.10;50.30;;;;;;5095041;28;20444;-51
2023/02/11 06:42:15;;;;;;;13.23;12.73;;;20.10;50.00;;;;;;5094766;28;20438;-52
2023/02/11 06:44:43;;;;;;;12.57;12.07;;;20.10;50.10;;;;;;5096246;28;20549;-51
2023/02/11 06:47:10;;;;;;;12.77;12.37;;;20.10;50.10;;;;;;5096507;28;20453;-57
2023/02/11 06:49:37;;;;;;;14.30;13.80;;;20.20;50.20;;;;;;5094985;28;20450;-54
2023/02/11 06:52:04;;;;;;;13.87;13.37;;;20.10;50.10;;;;;;5095349;28;20521;-55
2023/02/11 06:54:30;;;;;;;13.90;13.30;;;20.20;50.20;;;;;;5095881;28;20994;-53
2023/02/11 06:56:59;;;;;;;12.93;12.53;;;20.20;50.10;;;;;;5095979;28;20778;-55
2023/02/11 06:59:25;;;;;;;13.90;13.20;;;20.20;50.10;;;;;;5096299;28;20482;-55
2023/02/11 07:01:52;;;;;;;13.13;12.67;;;20.20;50.20;;;;;;5095438;28;20876;-52
2023/02/11 07:04:19;;;;;;;13.93;13.13;;;20.30;50.20;;;;;;5093679;28;20561;-57
2023/02/11 07:06:46;;;;;;;14.33;13.10;;;20.30;50.00;;;;;;5092434;28;20495;-54
2023/02/11 07:09:13;;;;;;;14.40;13.70;;;20.40;51.00;;;;;;5093616;28;20478;-57
2023/02/11 07:11:40;;;;;;;13.70;13.30;;;20.40;50.70;;;;;;5093197;28;20710;-55
2023/02/11 07:14:08;;;;;;;14.10;13.40;;;20.40;50.00;;;;;;5092500;28;20486;-56
2023/02/11 07:16:36;;;;;;;15.53;14.83;;;20.50;49.80;;;;;;5092844;28;20525;-55
2023/02/11 07:19:03;;;;;;;14.63;14.03;;;20.60;49.60;;;;;;5092906;28;20448;-55
2023/02/11 07:21:29;;;;;;;15.23;14.70;;;20.70;49.60;;;;;;5092942;28;20538;-56
2023/02/11 07:23:56;;;;;;;15.07;14.47;;;20.70;49.50;;;;;;5092146;28;20561;-56
2023/02/11 07:26:24;;;;;;;14.47;13.87;;;20.80;50.70;;;;;;5092697;28;20887;-52
2023/02/11 07:28:52;;;;;;;15.27;14.47;;;20.90;50.90;;;;;;5092198;28;20551;-52
2023/02/11 07:31:23;;;;;;;14.67;13.67;;;21.00;50.20;;;;;;5092544;28;20487;-51
2023/02/11 07:33:51;;;;;;;14.97;14.10;;;21.00;49.60;;;;;;5092341;28;20462;-50
2023/02/11 07:36:18;;;;;;;17.03;16.23;;;21.10;49.40;;;;;;5092191;28;20449;-52
2023/02/11 07:38:46;;;;;;;14.00;13.40;;;21.10;50.40;;;;;;5092150;28;20454;-53
2023/02/11 07:41:14;;;;;;;14.23;13.73;;;21.20;49.80;;;;;;5092280;28;20462;-51
2023/02/11 07:43:42;;;;;;;15.60;14.80;;;21.20;49.60;;;;;;5091904;28;20469;-55
2023/02/11 07:46:11;;;;;;;14.03;13.30;;;21.30;50.10;;;;;;5092393;28;20523;-55
2023/02/11 07:48:40;;;;;;;15.37;14.77;;;21.30;50.10;;;;;;5092403;28;20449;-52
2023/02/11 07:51:09;;;;;;;17.10;15.80;;;21.30;49.50;;;;;;5092605;28;20469;-63
2023/02/11 07:53:36;;;;;;;14.43;13.87;;;21.40;49.60;;;;;;5091980;28;20464;-57
2023/02/11 07:56:04;;;;;;;16.43;15.73;;;21.40;50.10;;;;;;5092127;28;20475;-66
2023/02/11 07:58:33;;;;;;;14.70;14.00;;;21.40;49.50;;;;;;5092241;28;20530;-65
2023/02/11 08:01:03;;;;;;;15.10;14.60;;;21.40;49.10;;;;;;5092138;28;20552;-66
2023/02/11 08:03:30;;;;;;;18.17;15.03;;;21.40;49.00;;;;;;5091979;28;20472;-66
2023/02/11 08:05:58;;;;;;;15.93;15.20;;;21.40;48.80;;;;;;5092281;28;20434;-65
2023/02/11 08:08:27;;;;;;;15.10;14.50;;;21.40;48.80;;;;;;5092039;28;20450;-66
2023/02/11 08:10:54;;;;;;;14.87;14.37;;;21.30;48.60;;;;;;5091688;28;20450;-66
2023/02/11 08:13:20;;;;;;;15.93;14.77;;;21.20;48.50;;;;;;5091571;28;20469;-65
2023/02/11 08:15:47;;;;;;;16.03;15.23;;;21.20;48.50;;;;;;5091469;28;20475;-65
2023/02/11 08:18:14;;;;;;;15.13;14.57;;;21.20;48.50;;;;;;5091841;28;20999;-66
2023/02/11 08:20:41;;;;;;;15.20;14.60;;;21.20;48.50;;;;;;5091520;28;20987;-65
2023/02/11 08:23:09;;;;;;;14.07;13.60;;;21.10;48.50;;;;;;5091178;28;20434;-66
2023/02/11 08:25:36;;;;;;;14.13;13.40;;;21.10;48.50;;;;;;5091347;28;20434;-66
2023/02/11 08:28:03;;;;;;;14.40;13.77;;;21.10;48.50;;;;;;5091616;28;20534;-66
2023/02/11 08:30:29;;;;;;;14.83;14.23;;;21.00;48.40;;;;;;5091236;28;20445;-65
2023/02/11 08:32:56;;;;;;;14.13;13.53;;;21.00;48.50;;;;;;5091563;28;20538;-63
2023/02/11 08:35:24;;;;;;;16.00;15.00;;;21.00;48.50;;;;;;5095885;28;20480;-60
2023/02/11 08:37:51;;;;;;;14.83;14.23;;;20.90;49.20;;;;;;5096740;28;20448;-61
2023/02/11 08:40:20;;;;;;;15.63;15.03;;;20.90;49.30;;;;;;5096723;28;20449;-61
2023/02/11 08:42:47;;;;;;;14.30;13.70;;;20.90;49.40;;;;;;5096646;28;20799;-60
2023/02/11 08:45:14;;;;;;;14.70;14.17;;;21.00;49.60;;;;;;5096727;28;20545;-62
2023/02/11 08:47:41;;;;;;;15.20;14.23;;;21.00;49.70;;;;;;5096781;28;20865;-61
2023/02/11 08:50:08;;;;;;;15.23;14.63;;;21.00;49.90;;;;;;5097204;28;20442;-65
2023/02/11 08:52:36;;;;;;;12.60;12.00;;;21.00;49.80;;;;;;5093956;28;20927;-59
2023/02/11 08:55:03;;;;;;;14.10;13.60;;;21.00;49.80;;;;;;5096176;28;20235;-62
2023/02/11 08:57:31;;;;;;;14.97;13.97;;;21.10;49.60;;;;;;5096867;28;20819;-61
2023/02/11 08:59:58;;;;;;;14.80;14.20;;;21.20;49.60;;;;;;5096396;28;20537;-60
2023/02/11 09:02:25;;;;;;;13.03;12.63;;;21.20;49.70;;;;;;5096351;28;20525;-60
2023/02/11 09:04:52;;;;;;;15.73;15.00;;;21.20;49.40;;;;;;5095808;28;20891;-61
2023/02/11 09:07:19;;;;;;;14.70;14.00;;;21.20;49.30;;;;;;5095854;28;20438;-63
2023/02/11 09:09:47;;;;;;;14.23;13.43;;;21.20;49.60;;;;;;5096314;28;20534;-61
2023/02/11 09:12:14;;;;;;;15.23;14.57;;;21.20;49.80;;;;;;5095601;28;20533;-58
2023/02/11 09:14:42;;;;;;;14.23;13.63;;;21.10;49.80;;;;;;5095405;28;20477;-54
2023/02/11 09:17:09;;;;;;;13.70;13.20;;;21.10;49.80;;;;;;5096529;28;20525;-59
2023/02/11 09:19:36;;;;;;;14.30;13.63;;;21.10;49.90;;;;;;5095521;28;20546;-57
2023/02/11 09:22:03;;;;;;;15.50;14.80;;;21.10;49.80;;;;;;5095471;28;20521;-57
2023/02/11 09:24:30;;;;;;;14.73;14.13;;;21.20;49.80;;;;;;5096171;28;20557;-57
2023/02/11 09:26:57;;;;;;;12.33;11.80;;;21.20;49.70;;;;;;5094630;28;20775;-57
2023/02/11 09:29:23;;;;;;;15.37;14.80;;;21.20;49.80;;;;;;5094946;28;20446;-59
2023/02/11 09:31:52;;;;;;;14.37;13.80;;;21.30;49.50;;;;;;5094968;28;20962;-59
2023/02/11 09:34:18;;;;;;;16.00;15.17;;;21.40;49.70;;;;;;5095054;28;20545;-60
2023/02/11 09:36:45;;;;;;;15.23;14.53;;;21.40;49.00;;;;;;5094662;28;20566;-59
2023/02/11 09:39:15;;;;;;;15.57;14.87;;;21.40;48.90;;;;;;5094255;28;20541;-60
2023/02/11 09:42:03;;;;;;;15.10;14.60;;;21.50;48.90;;;;;;5094822;28;20447;-59
2023/02/11 09:44:32;;;;;;;14.70;14.17;;;21.50;48.90;;;;;;5094812;28;20817;-59
2023/02/11 09:47:02;;;;;;;15.13;14.40;;;21.50;48.80;;;;;;5093750;28;20501;-61
2023/02/11 09:49:35;;;;;;;16.80;16.20;;;21.40;48.70;;;;;;5094315;28;20446;-59
2023/02/11 09:52:06;;;;;;;16.10;15.50;;;21.50;48.80;;;;;;5073989;28;20446;-60
2023/02/11 09:54:37;;;;;;;15.43;14.83;;;21.50;48.70;;;;;;5073989;28;20506;-62
2023/02/11 09:57:04;;;;;;;15.87;15.07;;;21.50;48.70;;;;;;5073847;28;20439;-58
2023/02/11 09:59:31;;;;;;;15.57;15.00;;;21.50;48.70;;;;;;5073699;28;20543;-63
2023/02/11 10:02:04;;;;;;;15.23;14.53;;;21.50;48.70;;;;;;5093541;28;20447;-60
2023/02/11 10:04:59;;;;;;;14.87;14.33;;;21.50;48.70;;;;;;5094853;28;20466;-58
2023/02/11 10:07:37;;;;;;;15.83;15.13;;;21.50;49.30;;;;;;5094580;28;20447;-60
2023/02/11 10:10:18;;;;;;;14.47;14.03;;;21.50;49.10;;;;;;5094114;28;20438;-59
2023/02/11 10:13:01;;;;;;;14.80;14.30;;;21.40;48.90;;;;;;5094195;28;20541;-61
2023/02/11 10:15:39;;;;;;;15.50;14.90;;;21.50;48.90;;;;;;5094091;28;20477;-64
2023/02/11 10:18:22;;;;;;;14.60;14.10;;;21.50;49.20;;;;;;5094294;28;20442;-59
2023/02/11 10:21:01;;;;;;;16.17;15.57;;;21.50;49.20;;;;;;5093419;28;20446;-60
2023/02/11 10:23:34;;;;;;;14.70;14.20;;;21.50;49.20;;;;;;5093667;28;20971;-60
2023/02/11 10:26:01;;;;;;;14.63;14.03;;;21.60;49.20;;;;;;5093676;28;20430;-60
2023/02/11 10:28:32;;;;;;;15.47;14.93;;;21.70;49.10;;;;;;5093755;28;20950;-61
2023/02/11 10:31:02;;;;;;;14.80;14.30;;;21.70;49.10;;;;;;5094515;28;20446;-61
2023/02/11 10:33:36;;;;;;;15.30;14.80;;;21.70;49.00;;;;;;5093557;28;20825;-62
2023/02/11 10:36:04;;;;;;;15.53;15.03;;;21.80;49.00;;;;;;5093749;28;20479;-62
2023/02/11 10:38:31;;;;;;;14.90;14.40;;;21.90;49.00;;;;;;5093454;28;20453;-61
2023/02/11 10:40:58;;;;;;;16.30;15.70;;;21.90;48.90;;;;;;5093692;28;20489;-60
2023/02/11 10:43:28;;;;;;;15.43;14.83;;;21.90;48.80;;;;;;5093982;28;20462;-61
2023/02/11 10:45:57;;;;;;;15.30;14.80;;;21.90;48.80;;;;;;5094482;28;20442;-62
2023/02/11 10:48:40;;;;;;;16.17;15.47;;;22.00;48.70;;;;;;5093229;28;20443;-62
2023/02/11 10:51:09;;;;;;;16.20;15.50;;;22.10;48.70;;;;;;5093241;28;20531;-62
2023/02/11 10:53:35;;;;;;;15.63;14.73;;;22.10;48.70;;;;;;5093198;28;20498;-62
2023/02/11 10:56:04;;;;;;;15.73;15.00;;;22.10;48.60;;;;;;5093167;28;20844;-62
2023/02/11 10:58:36;;;;;;;15.67;14.87;;;22.10;48.50;;;;;;5092099;28;20448;-61
2023/02/11 11:01:03;;;;;;;14.60;14.07;;;22.10;48.60;;;;;;5093555;28;20448;-59
2023/02/11 11:03:34;;;;;;;15.73;15.13;;;22.10;48.40;;;;;;5093714;28;20473;-59
2023/02/11 11:06:05;;;;;;;15.50;14.90;;;22.20;48.40;;;;;;5094042;28;20434;-57
2023/02/11 11:08:41;;;;;;;16.53;15.93;;;22.20;48.40;;;;;;5093003;28;20438;-60
2023/02/11 11:11:10;;;;;;;17.50;16.80;;;22.20;48.50;;;;;;5093380;28;20529;-58
2023/02/11 11:13:39;;;;;;;17.60;16.43;;;22.20;48.40;;;;;;5094005;28;20458;-57
2023/02/11 11:16:10;;;;;;;15.70;15.10;;;22.20;48.40;;;;;;5094355;28;20488;-57
2023/02/11 11:18:36;;;;;;;16.67;15.87;;;22.20;48.30;;;;;;5093808;28;20439;-57
2023/02/11 11:21:07;;;;;;;16.10;15.60;;;22.20;48.20;;;;;;5092767;28;20530;-57
2023/02/11 11:23:36;;;;;;;15.43;14.83;;;22.20;48.10;;;;;;5115782;22;20846;-65
2023/02/11 11:26:06;;;;;;;15.53;14.77;;;22.30;48.70;;;;;;5052050;28;20432;-66
2023/02/11 11:28:38;;;;;;;15.20;14.50;;;22.30;48.10;;;;;;5052256;28;20443;-60
2023/02/11 11:31:12;;;;;;;16.90;15.87;;;22.30;49.20;;;;;;5052049;28;20826;-66
2023/02/11 11:33:42;;;;;;;15.57;14.90;;;22.30;49.20;;;;;;5056001;28;20444;-64
2023/02/11 11:36:13;;;;;;;14.87;14.27;;;22.30;49.00;;;;;;5053010;28;20511;-61
2023/02/11 11:38:45;;;;;;;15.53;14.93;;;22.30;49.20;;;;;;5053222;28;20448;-62
2023/02/11 11:41:24;;;;;;;14.63;13.93;;;22.40;49.30;;;;;;5052933;28;20455;-68
2023/02/11 11:43:56;;;;;;;17.80;16.80;;;22.30;48.90;;;;;;5052148;28;20529;-67
2023/02/11 11:46:25;;;;;;;17.60;16.50;;;22.20;47.80;;;;;;5052392;28;20436;-62
2023/02/11 11:48:56;;;;;;;18.17;17.13;;;22.10;47.70;;;;;;5052405;28;20452;-62
2023/02/11 11:51:25;;;;;;;17.13;16.23;;;22.10;49.10;;;;;;5052572;28;20466;-61
2023/02/11 11:53:58;;;;;;;15.13;14.60;;;22.20;48.90;;;;;;5052782;28;20827;-63
2023/02/11 11:56:27;;;;;;;16.50;15.80;;;22.20;48.80;;;;;;5052861;28;20484;-59
2023/02/11 11:58:54;;;;;;;16.97;15.97;;;22.20;48.70;;;;;;5052968;28;20447;-64
2023/02/11 12:01:34;;;;;;;15.87;15.23;;;22.30;48.60;;;;;;5053145;28;20531;-61
2023/02/11 12:04:20;;;;;;;14.83;14.33;;;22.30;48.60;;;;;;5052558;28;20468;-64
2023/02/11 12:07:11;;;;;;;15.10;14.50;;;22.40;48.50;;;;;;5053176;28;20458;-65
2023/02/11 12:09:49;;;;;;;15.83;15.23;;;22.40;48.50;;;;;;5052413;28;20527;-67
2023/02/11 12:12:38;;;;;;;16.80;15.50;;;22.40;48.50;;;;;;5052753;28;20534;-64
2023/02/11 12:15:17;;;;;;;15.10;14.40;;;22.40;48.40;;;;;;5053100;28;20988;-64
2023/02/11 12:17:59;;;;;;;16.33;15.73;;;22.50;48.80;;;;;;5054068;28;20917;-64
2023/02/11 12:20:35;;;;;;;14.80;14.10;;;22.50;48.50;;;;;;5053508;28;20547;-64
2023/02/11 12:23:24;;;;;;;15.90;15.33;;;22.50;48.20;;;;;;5053692;28;20929;-64
2023/02/11 12:25:56;;;;;;;15.30;14.70;;;22.50;48.10;;;;;;5052868;28;20440;-63
2023/02/11 12:28:34;;;;;;;14.83;14.33;;;22.50;48.00;;;;;;5052611;28;20523;-64
2023/02/11 12:31:11;;;;;;;16.10;15.40;;;22.50;47.90;;;;;;5052746;28;20556;-64
2023/02/11 12:33:52;;;;;;;15.70;15.10;;;22.60;47.90;;;;;;5052765;28;20437;-64
2023/02/11 12:36:36;;;;;;;17.37;16.60;;;22.60;47.80;;;;;;5052644;28;20488;-63
2023/02/11 12:39:16;;;;;;;15.80;15.20;;;22.60;47.80;;;;;;5052784;28;20581;-62
2023/02/11 12:45:08;;;;;;;15.63;15.07;;;22.50;47.50;;;;;;5041418;28;20581;-67
2023/02/11 12:47:48;;;;;;;16.60;15.80;;;22.40;48.30;;;;;;5052196;28;20442;-69
2023/02/11 12:50:24;;;;;;;16.70;15.90;;;22.50;48.30;;;;;;5051784;28;20435;-66
2023/02/11 12:53:09;;;;;;;15.43;14.73;;;22.50;48.30;;;;;;5053018;28;20779;-68